sensor_id;sensor_type;location;lat;lon;timestamp;temperature;humidity
28823;DHT22;15961;54.678;9.110;2023-03-05T00:00:50;2.70;99.90
28823;DHT22;15961;54.678;9.110;2023-03-05T00:03:15;2.80;99.90
28823;DHT22;15961;54.678;9.110;2023-03-05T00:05:41;2.80;99.90
28823;DHT22;15961;54.678;9.110;2023-03-05T00:08:06;2.90;99.90
28823;DHT22;15961;54.678;9.110;2023-03-05T00:10:32;2.90;99.90
28823;DHT22;15961;54.678;9.110;2023-03-05T00:12:57;2.90;99.90
28823;DHT22;15961;54.678;9.110;2023-03-05T00:15:23;3.00;99.90
28823;DHT22;15961;54.678;9.110;2023-03-05T00:17:48;2.90;99.90
28823;DHT22;15961;54.678;9.110;2023-03-05T00:20:14;2.90;99.90
28823;DHT22;15961;54.678;9.110;2023-03-05T00:22:40;2.80;99.90
28823;DHT22;15961;54.678;9.110;2023-03-05T00:25:06;2.70;99.90
28823;DHT22;15961;54.678;9.110;2023-03-05T00:27:31;2.70;99.90
28823;DHT22;15961;54.678;9.110;2023-03-05T00:29:57;2.60;99.90
28823;DHT22;15961;54.678;9.110;2023-03-05T00:32:22;2.50;99.90
28823;DHT22;15961;54.678;9.110;2023-03-05T00:34:48;2.40;99.90
28823;DHT22;15961;54.678;9.110;2023-03-05T00:37:14;2.40;99.90
28823;DHT22;15961;54.678;9.110;2023-03-05T00:39:40;2.50;99.90
28823;DHT22;15961;54.678;9.110;2023-03-05T00:42:06;2.50;99.90
28823;DHT22;15961;54.678;9.110;2023-03-05T00:44:32;2.60;99.90
28823;DHT22;15961;54.678;9.110;2023-03-05T00:46:57;2.70;99.90
28823;DHT22;15961;54.678;9.110;2023-03-05T00:49:23;2.70;99.90
28823;DHT22;15961;54.678;9.110;2023-03-05T00:51:48;2.70;99.90
28823;DHT22;15961;54.678;9.110;2023-03-05T00:54:14;2.70;99.90
28823;DHT22;15961;54.678;9.110;2023-03-05T00:56:40;2.80;99.90
28823;DHT22;15961;54.678;9.110;2023-03-05T00:59:05;2.80;99.90
28823;DHT22;15961;54.678;9.110;2023-03-05T01:01:31;2.80;99.90
28823;DHT22;15961;54.678;9.110;2023-03-05T01:03:56;2.80;99.90
28823;DHT22;15961;54.678;9.110;2023-03-05T01:06:24;2.80;99.90
28823;DHT22;15961;54.678;9.110;2023-03-05T01:08:49;2.80;99.90
28823;DHT22;15961;54.678;9.110;2023-03-05T01:11:15;2.80;99.90
28823;DHT22;15961;54.678;9.110;2023-03-05T01:13:41;2.70;99.90
28823;DHT22;15961;54.678;9.110;2023-03-05T01:16:06;2.70;99.90
28823;DHT22;15961;54.678;9.110;2023-03-05T01:18:32;2.70;99.90
28823;DHT22;15961;54.678;9.110;2023-03-05T01:20:58;2.60;99.90
28823;DHT22;15961;54.678;9.110;2023-03-05T01:23:24;2.60;99.90
28823;DHT22;15961;54.678;9.110;2023-03-05T01:25:57;2.60;99.90
28823;DHT22;15961;54.678;9.110;2023-03-05T01:28:24;2.60;99.90
28823;DHT22;15961;54.678;9.110;2023-03-05T01:30:49;2.60;99.90
28823;DHT22;15961;54.678;9.110;2023-03-05T01:33:15;2.60;99.90
28823;DHT22;15961;54.678;9.110;2023-03-05T01:35:40;2.60;99.90
28823;DHT22;15961;54.678;9.110;2023-03-05T01:38:06;2.60;99.90
28823;DHT22;15961;54.678;9.110;2023-03-05T01:40:32;2.40;99.90
28823;DHT22;15961;54.678;9.110;2023-03-05T01:43:18;2.20;99.90
28823;DHT22;15961;54.678;9.110;2023-03-05T01:51:38;1.60;99.90
28823;DHT22;15961;54.678;9.110;2023-03-05T01:54:06;1.50;99.90
28823;DHT22;15961;54.678;9.110;2023-03-05T01:56:32;1.40;99.90
28823;DHT22;15961;54.678;9.110;2023-03-05T01:58:59;1.40;99.90
28823;DHT22;15961;54.678;9.110;2023-03-05T02:01:34;1.30;99.90
28823;DHT22;15961;54.678;9.110;2023-03-05T02:04:01;1.30;99.90
28823;DHT22;15961;54.678;9.110;2023-03-05T02:06:27;1.30;99.90
28823;DHT22;15961;54.678;9.110;2023-03-05T02:08:53;1.30;99.90
28823;DHT22;15961;54.678;9.110;2023-03-05T02:11:19;1.20;99.90
28823;DHT22;15961;54.678;9.110;2023-03-05T02:13:44;1.20;99.90
28823;DHT22;15961;54.678;9.110;2023-03-05T02:16:10;1.20;99.90
28823;DHT22;15961;54.678;9.110;2023-03-05T02:18:35;1.20;99.90
28823;DHT22;15961;54.678;9.110;2023-03-05T02:21:06;1.30;99.90
28823;DHT22;15961;54.678;9.110;2023-03-05T02:23:34;1.20;99.90
28823;DHT22;15961;54.678;9.110;2023-03-05T02:26:08;1.20;99.90
28823;DHT22;15961;54.678;9.110;2023-03-05T02:28:45;1.20;99.90
28823;DHT22;15961;54.678;9.110;2023-03-05T02:31:17;1.10;99.90
28823;DHT22;15961;54.678;9.110;2023-03-05T02:33:43;1.10;99.90
28823;DHT22;15961;54.678;9.110;2023-03-05T02:36:09;1.10;99.90
28823;DHT22;15961;54.678;9.110;2023-03-05T02:38:37;1.10;99.90
28823;DHT22;15961;54.678;9.110;2023-03-05T02:41:02;1.20;99.90
28823;DHT22;15961;54.678;9.110;2023-03-05T02:43:28;1.20;99.90
28823;DHT22;15961;54.678;9.110;2023-03-05T02:45:53;1.20;99.90
28823;DHT22;15961;54.678;9.110;2023-03-05T02:48:19;1.20;99.90
28823;DHT22;15961;54.678;9.110;2023-03-05T02:50:45;1.20;99.90
28823;DHT22;15961;54.678;9.110;2023-03-05T02:53:11;1.20;99.90
28823;DHT22;15961;54.678;9.110;2023-03-05T02:55:36;1.20;99.90
28823;DHT22;15961;54.678;9.110;2023-03-05T02:58:02;1.30;99.90
28823;DHT22;15961;54.678;9.110;2023-03-05T03:00:28;1.20;99.90
28823;DHT22;15961;54.678;9.110;2023-03-05T03:02:53;1.20;99.90
28823;DHT22;15961;54.678;9.110;2023-03-05T03:05:19;1.20;99.90
28823;DHT22;15961;54.678;9.110;2023-03-05T03:07:45;1.20;99.90
28823;DHT22;15961;54.678;9.110;2023-03-05T03:10:11;1.10;99.90
28823;DHT22;15961;54.678;9.110;2023-03-05T03:12:41;1.20;99.90
28823;DHT22;15961;54.678;9.110;2023-03-05T03:15:08;1.20;99.90
28823;DHT22;15961;54.678;9.110;2023-03-05T03:17:35;1.20;99.90
28823;DHT22;15961;54.678;9.110;2023-03-05T03:20:02;1.20;99.90
28823;DHT22;15961;54.678;9.110;2023-03-05T03:22:28;1.30;99.90
28823;DHT22;15961;54.678;9.110;2023-03-05T03:24:53;1.30;99.90
28823;DHT22;15961;54.678;9.110;2023-03-05T03:27:20;1.30;99.90
28823;DHT22;15961;54.678;9.110;2023-03-05T03:29:46;1.40;99.90
28823;DHT22;15961;54.678;9.110;2023-03-05T03:32:11;1.40;99.90
28823;DHT22;15961;54.678;9.110;2023-03-05T03:34:37;1.40;99.90
28823;DHT22;15961;54.678;9.110;2023-03-05T03:37:02;1.50;99.90
28823;DHT22;15961;54.678;9.110;2023-03-05T03:39:28;1.50;99.90
28823;DHT22;15961;54.678;9.110;2023-03-05T03:41:53;1.40;99.90
28823;DHT22;15961;54.678;9.110;2023-03-05T03:44:20;1.50;99.90
28823;DHT22;15961;54.678;9.110;2023-03-05T03:46:47;1.50;99.90
28823;DHT22;15961;54.678;9.110;2023-03-05T03:49:16;1.40;99.90
28823;DHT22;15961;54.678;9.110;2023-03-05T03:51:42;1.40;99.90
28823;DHT22;15961;54.678;9.110;2023-03-05T03:54:08;1.50;99.90
28823;DHT22;15961;54.678;9.110;2023-03-05T03:56:33;1.50;99.90
28823;DHT22;15961;54.678;9.110;2023-03-05T03:58:59;1.50;99.90
28823;DHT22;15961;54.678;9.110;2023-03-05T04:01:24;1.50;99.90
28823;DHT22;15961;54.678;9.110;2023-03-05T04:03:50;1.50;99.90
28823;DHT22;15961;54.678;9.110;2023-03-05T04:06:15;1.50;99.90
28823;DHT22;15961;54.678;9.110;2023-03-05T04:08:41;1.60;99.90
28823;DHT22;15961;54.678;9.110;2023-03-05T04:11:07;1.70;99.90
28823;DHT22;15961;54.678;9.110;2023-03-05T04:13:32;1.80;99.90
28823;DHT22;15961;54.678;9.110;2023-03-05T04:15:58;1.80;99.90
28823;DHT22;15961;54.678;9.110;2023-03-05T04:18:23;1.80;99.90
28823;DHT22;15961;54.678;9.110;2023-03-05T04:20:49;1.80;99.90
28823;DHT22;15961;54.678;9.110;2023-03-05T04:23:15;1.80;99.90
28823;DHT22;15961;54.678;9.110;2023-03-05T04:25:41;1.80;99.90
28823;DHT22;15961;54.678;9.110;2023-03-05T04:28:06;1.80;99.90
28823;DHT22;15961;54.678;9.110;2023-03-05T04:30:32;1.80;99.90
28823;DHT22;15961;54.678;9.110;2023-03-05T04:32:58;1.80;99.90
28823;DHT22;15961;54.678;9.110;2023-03-05T04:35:23;1.80;99.90
28823;DHT22;15961;54.678;9.110;2023-03-05T04:37:49;1.90;99.90
28823;DHT22;15961;54.678;9.110;2023-03-05T04:40:15;2.00;99.90
28823;DHT22;15961;54.678;9.110;2023-03-05T04:42:42;2.00;99.90
28823;DHT22;15961;54.678;9.110;2023-03-05T04:45:08;2.10;99.90
28823;DHT22;15961;54.678;9.110;2023-03-05T04:47:34;2.20;99.90
28823;DHT22;15961;54.678;9.110;2023-03-05T04:50:00;2.20;99.90
28823;DHT22;15961;54.678;9.110;2023-03-05T04:52:25;2.10;99.90
28823;DHT22;15961;54.678;9.110;2023-03-05T04:54:51;2.10;99.90
28823;DHT22;15961;54.678;9.110;2023-03-05T04:57:16;2.10;99.90
28823;DHT22;15961;54.678;9.110;2023-03-05T04:59:42;2.00;99.90
28823;DHT22;15961;54.678;9.110;2023-03-05T05:02:07;1.90;99.90
28823;DHT22;15961;54.678;9.110;2023-03-05T05:04:33;1.90;99.90
28823;DHT22;15961;54.678;9.110;2023-03-05T05:07:01;1.80;99.90
28823;DHT22;15961;54.678;9.110;2023-03-05T05:09:26;1.80;99.90
28823;DHT22;15961;54.678;9.110;2023-03-05T05:11:52;1.70;99.90
28823;DHT22;15961;54.678;9.110;2023-03-05T05:14:18;1.70;99.90
28823;DHT22;15961;54.678;9.110;2023-03-05T05:16:44;1.60;99.90
28823;DHT22;15961;54.678;9.110;2023-03-05T05:19:10;1.60;99.90
28823;DHT22;15961;54.678;9.110;2023-03-05T05:21:36;1.60;99.90
28823;DHT22;15961;54.678;9.110;2023-03-05T05:24:01;1.60;99.90
28823;DHT22;15961;54.678;9.110;2023-03-05T05:26:27;1.60;99.90
28823;DHT22;15961;54.678;9.110;2023-03-05T05:28:52;1.50;99.90
28823;DHT22;15961;54.678;9.110;2023-03-05T05:31:18;1.50;99.90
28823;DHT22;15961;54.678;9.110;2023-03-05T05:33:45;1.40;99.90
28823;DHT22;15961;54.678;9.110;2023-03-05T05:36:13;1.30;99.90
28823;DHT22;15961;54.678;9.110;2023-03-05T05:38:40;1.30;99.90
28823;DHT22;15961;54.678;9.110;2023-03-05T05:41:08;1.20;99.90
28823;DHT22;15961;54.678;9.110;2023-03-05T05:43:35;1.10;99.90
28823;DHT22;15961;54.678;9.110;2023-03-05T05:46:02;0.90;99.90
28823;DHT22;15961;54.678;9.110;2023-03-05T05:48:30;0.90;99.90
28823;DHT22;15961;54.678;9.110;2023-03-05T05:50:56;0.90;99.90
28823;DHT22;15961;54.678;9.110;2023-03-05T05:53:22;0.80;99.90
28823;DHT22;15961;54.678;9.110;2023-03-05T05:55:49;0.80;99.90
28823;DHT22;15961;54.678;9.110;2023-03-05T05:58:14;0.70;99.90
28823;DHT22;15961;54.678;9.110;2023-03-05T06:00:40;0.70;99.90
28823;DHT22;15961;54.678;9.110;2023-03-05T06:03:06;0.70;99.90
28823;DHT22;15961;54.678;9.110;2023-03-05T06:05:32;0.80;99.90
28823;DHT22;15961;54.678;9.110;2023-03-05T06:07:58;0.80;99.90
28823;DHT22;15961;54.678;9.110;2023-03-05T06:10:23;0.80;99.90
28823;DHT22;15961;54.678;9.110;2023-03-05T06:12:49;0.80;99.90
28823;DHT22;15961;54.678;9.110;2023-03-05T06:15:15;0.90;99.90
28823;DHT22;15961;54.678;9.110;2023-03-05T06:17:40;0.90;99.90
28823;DHT22;15961;54.678;9.110;2023-03-05T06:20:06;1.00;99.90
28823;DHT22;15961;54.678;9.110;2023-03-05T06:22:36;1.00;99.90
28823;DHT22;15961;54.678;9.110;2023-03-05T06:25:03;1.00;99.90
28823;DHT22;15961;54.678;9.110;2023-03-05T06:27:29;1.10;99.90
28823;DHT22;15961;54.678;9.110;2023-03-05T06:29:54;1.20;99.90
28823;DHT22;15961;54.678;9.110;2023-03-05T06:32:21;1.30;99.90
28823;DHT22;15961;54.678;9.110;2023-03-05T06:34:47;1.30;99.90
28823;DHT22;15961;54.678;9.110;2023-03-05T06:37:13;1.40;99.90
28823;DHT22;15961;54.678;9.110;2023-03-05T06:39:38;1.40;99.90
28823;DHT22;15961;54.678;9.110;2023-03-05T06:42:04;1.50;99.90
28823;DHT22;15961;54.678;9.110;2023-03-05T06:44:29;1.50;99.90
28823;DHT22;15961;54.678;9.110;2023-03-05T06:46:55;1.50;99.90
28823;DHT22;15961;54.678;9.110;2023-03-05T06:49:20;1.50;99.90
28823;DHT22;15961;54.678;9.110;2023-03-05T06:51:46;1.50;99.90
28823;DHT22;15961;54.678;9.110;2023-03-05T06:54:13;1.50;99.90
28823;DHT22;15961;54.678;9.110;2023-03-05T06:56:42;1.60;99.90
28823;DHT22;15961;54.678;9.110;2023-03-05T06:59:09;1.60;99.90
28823;DHT22;15961;54.678;9.110;2023-03-05T07:01:35;1.60;99.90
28823;DHT22;15961;54.678;9.110;2023-03-05T07:04:00;1.60;99.90
28823;DHT22;15961;54.678;9.110;2023-03-05T07:06:28;1.60;99.90
28823;DHT22;15961;54.678;9.110;2023-03-05T07:08:57;1.60;99.90
28823;DHT22;15961;54.678;9.110;2023-03-05T07:11:23;1.70;99.90
28823;DHT22;15961;54.678;9.110;2023-03-05T07:13:50;1.70;99.90
28823;DHT22;15961;54.678;9.110;2023-03-05T07:16:21;1.70;99.90
28823;DHT22;15961;54.678;9.110;2023-03-05T07:18:47;1.80;99.90
28823;DHT22;15961;54.678;9.110;2023-03-05T07:21:22;1.80;99.90
28823;DHT22;15961;54.678;9.110;2023-03-05T07:23:49;1.90;99.90
28823;DHT22;15961;54.678;9.110;2023-03-05T07:26:15;2.00;99.90
28823;DHT22;15961;54.678;9.110;2023-03-05T07:28:41;2.10;99.90
28823;DHT22;15961;54.678;9.110;2023-03-05T07:31:11;2.10;99.90
28823;DHT22;15961;54.678;9.110;2023-03-05T07:33:37;2.20;99.90
28823;DHT22;15961;54.678;9.110;2023-03-05T07:36:05;2.30;99.90
28823;DHT22;15961;54.678;9.110;2023-03-05T07:38:31;2.30;99.90
28823;DHT22;15961;54.678;9.110;2023-03-05T07:41:05;2.20;99.90
28823;DHT22;15961;54.678;9.110;2023-03-05T07:43:31;2.30;99.90
28823;DHT22;15961;54.678;9.110;2023-03-05T07:45:56;2.30;99.90
28823;DHT22;15961;54.678;9.110;2023-03-05T07:48:23;2.30;99.90
28823;DHT22;15961;54.678;9.110;2023-03-05T07:50:48;2.30;99.90
28823;DHT22;15961;54.678;9.110;2023-03-05T07:53:15;2.30;99.90
28823;DHT22;15961;54.678;9.110;2023-03-05T07:55:44;2.30;99.90
28823;DHT22;15961;54.678;9.110;2023-03-05T07:58:11;2.60;99.90
28823;DHT22;15961;54.678;9.110;2023-03-05T08:00:38;2.90;99.90
28823;DHT22;15961;54.678;9.110;2023-03-05T08:03:03;3.00;99.90
28823;DHT22;15961;54.678;9.110;2023-03-05T08:05:29;3.10;99.90
28823;DHT22;15961;54.678;9.110;2023-03-05T08:07:55;3.30;99.90
28823;DHT22;15961;54.678;9.110;2023-03-05T08:10:20;3.30;99.90
28823;DHT22;15961;54.678;9.110;2023-03-05T08:12:46;3.30;99.90
28823;DHT22;15961;54.678;9.110;2023-03-05T08:15:11;3.10;99.90
28823;DHT22;15961;54.678;9.110;2023-03-05T08:17:37;2.90;99.90
28823;DHT22;15961;54.678;9.110;2023-03-05T08:20:03;2.50;99.90
28823;DHT22;15961;54.678;9.110;2023-03-05T08:22:36;2.50;99.90
28823;DHT22;15961;54.678;9.110;2023-03-05T08:25:03;2.30;99.90
28823;DHT22;15961;54.678;9.110;2023-03-05T08:27:29;2.10;99.90
28823;DHT22;15961;54.678;9.110;2023-03-05T08:29:54;2.00;99.90
28823;DHT22;15961;54.678;9.110;2023-03-05T08:32:20;1.90;99.90
28823;DHT22;15961;54.678;9.110;2023-03-05T08:34:46;1.80;99.90
28823;DHT22;15961;54.678;9.110;2023-03-05T08:37:11;1.70;99.90
28823;DHT22;15961;54.678;9.110;2023-03-05T08:39:37;1.70;99.90
28823;DHT22;15961;54.678;9.110;2023-03-05T08:42:03;1.70;99.90
28823;DHT22;15961;54.678;9.110;2023-03-05T08:44:28;1.70;99.90
28823;DHT22;15961;54.678;9.110;2023-03-05T08:46:54;1.60;99.90
28823;DHT22;15961;54.678;9.110;2023-03-05T08:49:21;1.60;99.90
28823;DHT22;15961;54.678;9.110;2023-03-05T08:51:47;1.60;99.90
28823;DHT22;15961;54.678;9.110;2023-03-05T08:54:13;1.60;99.90
28823;DHT22;15961;54.678;9.110;2023-03-05T08:56:38;1.70;99.90
28823;DHT22;15961;54.678;9.110;2023-03-05T08:59:04;1.90;99.90
28823;DHT22;15961;54.678;9.110;2023-03-05T09:01:30;2.20;99.90
28823;DHT22;15961;54.678;9.110;2023-03-05T09:03:57;2.40;99.90
28823;DHT22;15961;54.678;9.110;2023-03-05T09:06:23;2.50;99.90
28823;DHT22;15961;54.678;9.110;2023-03-05T09:08:49;2.70;99.90
28823;DHT22;15961;54.678;9.110;2023-03-05T09:11:15;2.90;99.90
28823;DHT22;15961;54.678;9.110;2023-03-05T09:13:41;3.00;99.90
28823;DHT22;15961;54.678;9.110;2023-03-05T09:16:10;3.10;99.90
28823;DHT22;15961;54.678;9.110;2023-03-05T09:18:36;3.20;99.90
28823;DHT22;15961;54.678;9.110;2023-03-05T09:21:10;3.50;99.90
28823;DHT22;15961;54.678;9.110;2023-03-05T09:23:36;3.90;99.90
28823;DHT22;15961;54.678;9.110;2023-03-05T09:26:04;4.30;99.90
28823;DHT22;15961;54.678;9.110;2023-03-05T09:28:30;4.30;99.90
28823;DHT22;15961;54.678;9.110;2023-03-05T09:30:55;4.20;99.90
28823;DHT22;15961;54.678;9.110;2023-03-05T09:33:22;4.20;99.90
28823;DHT22;15961;54.678;9.110;2023-03-05T09:35:48;4.40;99.90
28823;DHT22;15961;54.678;9.110;2023-03-05T09:38:13;4.60;99.90
28823;DHT22;15961;54.678;9.110;2023-03-05T09:41:03;4.50;99.90
28823;DHT22;15961;54.678;9.110;2023-03-05T09:44:10;4.10;99.90
28823;DHT22;15961;54.678;9.110;2023-03-05T09:49:37;3.40;99.90
28823;DHT22;15961;54.678;9.110;2023-03-05T09:52:13;3.40;99.90
28823;DHT22;15961;54.678;9.110;2023-03-05T09:54:42;3.30;99.90
28823;DHT22;15961;54.678;9.110;2023-03-05T09:57:23;3.40;99.90
28823;DHT22;15961;54.678;9.110;2023-03-05T09:59:56;3.50;99.90
28823;DHT22;15961;54.678;9.110;2023-03-05T10:02:27;3.30;99.90
28823;DHT22;15961;54.678;9.110;2023-03-05T10:04:59;3.10;99.90
28823;DHT22;15961;54.678;9.110;2023-03-05T10:07:30;3.10;99.90
28823;DHT22;15961;54.678;9.110;2023-03-05T10:10:05;3.20;99.90
28823;DHT22;15961;54.678;9.110;2023-03-05T10:12:47;3.20;99.90
28823;DHT22;15961;54.678;9.110;2023-03-05T10:20:40;3.50;99.90
28823;DHT22;15961;54.678;9.110;2023-03-05T10:25:59;4.40;99.90
28823;DHT22;15961;54.678;9.110;2023-03-05T10:28:52;5.00;99.90
28823;DHT22;15961;54.678;9.110;2023-03-05T10:31:45;5.50;99.90
28823;DHT22;15961;54.678;9.110;2023-03-05T10:34:29;5.60;99.90
28823;DHT22;15961;54.678;9.110;2023-03-05T10:45:16;5.40;99.90
28823;DHT22;15961;54.678;9.110;2023-03-05T10:47:54;5.40;99.90
28823;DHT22;15961;54.678;9.110;2023-03-05T10:50:27;5.50;99.90
28823;DHT22;15961;54.678;9.110;2023-03-05T10:55:34;5.70;99.90
28823;DHT22;15961;54.678;9.110;2023-03-05T10:58:07;5.60;99.90
28823;DHT22;15961;54.678;9.110;2023-03-05T11:00:34;5.30;99.90
28823;DHT22;15961;54.678;9.110;2023-03-05T11:03:06;5.00;99.90
28823;DHT22;15961;54.678;9.110;2023-03-05T11:05:38;4.80;99.90
28823;DHT22;15961;54.678;9.110;2023-03-05T11:11:07;4.50;99.90
28823;DHT22;15961;54.678;9.110;2023-03-05T11:14:26;4.90;99.90
28823;DHT22;15961;54.678;9.110;2023-03-05T11:16:56;5.30;99.90
28823;DHT22;15961;54.678;9.110;2023-03-05T11:19:32;5.60;99.90
28823;DHT22;15961;54.678;9.110;2023-03-05T11:22:07;5.50;99.90
28823;DHT22;15961;54.678;9.110;2023-03-05T11:24:38;5.80;99.90
28823;DHT22;15961;54.678;9.110;2023-03-05T11:29:48;6.20;99.90
28823;DHT22;15961;54.678;9.110;2023-03-05T11:32:25;6.30;99.90
28823;DHT22;15961;54.678;9.110;2023-03-05T11:34:51;6.30;99.90
28823;DHT22;15961;54.678;9.110;2023-03-05T11:37:25;6.60;99.90
28823;DHT22;15961;54.678;9.110;2023-03-05T11:40:21;6.90;99.90
28823;DHT22;15961;54.678;9.110;2023-03-05T11:42:56;6.70;99.90
28823;DHT22;15961;54.678;9.110;2023-03-05T11:45:24;6.20;99.90
28823;DHT22;15961;54.678;9.110;2023-03-05T11:47:51;5.80;99.90
28823;DHT22;15961;54.678;9.110;2023-03-05T11:50:32;5.20;99.90
28823;DHT22;15961;54.678;9.110;2023-03-05T11:53:02;4.50;99.90
28823;DHT22;15961;54.678;9.110;2023-03-05T11:58:43;4.40;99.90
28823;DHT22;15961;54.678;9.110;2023-03-05T12:01:16;4.30;99.90
28823;DHT22;15961;54.678;9.110;2023-03-05T12:03:43;4.30;99.90
28823;DHT22;15961;54.678;9.110;2023-03-05T12:08:42;4.30;99.90
28823;DHT22;15961;54.678;9.110;2023-03-05T12:11:17;4.30;99.90
28823;DHT22;15961;54.678;9.110;2023-03-05T12:13:47;4.30;99.90
28823;DHT22;15961;54.678;9.110;2023-03-05T12:16:41;4.30;99.90
28823;DHT22;15961;54.678;9.110;2023-03-05T12:19:31;4.30;99.90
28823;DHT22;15961;54.678;9.110;2023-03-05T12:21:59;4.40;99.90
28823;DHT22;15961;54.678;9.110;2023-03-05T12:29:46;4.60;99.90
28823;DHT22;15961;54.678;9.110;2023-03-05T12:35:03;4.60;99.90
28823;DHT22;15961;54.678;9.110;2023-03-05T12:42:53;4.40;99.90
28823;DHT22;15961;54.678;9.110;2023-03-05T12:45:24;4.40;99.90
28823;DHT22;15961;54.678;9.110;2023-03-05T12:53:11;4.80;99.90
28823;DHT22;15961;54.678;9.110;2023-03-05T12:58:18;5.20;99.90
28823;DHT22;15961;54.678;9.110;2023-03-05T13:00:45;5.20;99.90
28823;DHT22;15961;54.678;9.110;2023-03-05T13:03:44;5.20;99.90
28823;DHT22;15961;54.678;9.110;2023-03-05T13:06:31;5.20;99.90
28823;DHT22;15961;54.678;9.110;2023-03-05T13:11:33;5.10;99.90
28823;DHT22;15961;54.678;9.110;2023-03-05T13:14:01;5.20;99.90
28823;DHT22;15961;54.678;9.110;2023-03-05T13:16:34;5.30;99.90
28823;DHT22;15961;54.678;9.110;2023-03-05T13:19:01;5.40;99.90
28823;DHT22;15961;54.678;9.110;2023-03-05T13:21:29;5.30;99.90
28823;DHT22;15961;54.678;9.110;2023-03-05T13:24:00;5.20;99.90
28823;DHT22;15961;54.678;9.110;2023-03-05T13:26:37;5.10;99.90
28823;DHT22;15961;54.678;9.110;2023-03-05T13:29:10;5.10;99.90
28823;DHT22;15961;54.678;9.110;2023-03-05T13:31:42;5.00;99.90
28823;DHT22;15961;54.678;9.110;2023-03-05T13:37:03;4.80;99.90
28823;DHT22;15961;54.678;9.110;2023-03-05T13:39:33;4.60;99.90
28823;DHT22;15961;54.678;9.110;2023-03-05T13:42:00;4.50;99.90
28823;DHT22;15961;54.678;9.110;2023-03-05T13:44:26;4.50;99.90
28823;DHT22;15961;54.678;9.110;2023-03-05T13:47:26;4.40;99.90
28823;DHT22;15961;54.678;9.110;2023-03-05T13:50:04;4.40;99.90
28823;DHT22;15961;54.678;9.110;2023-03-05T13:52:33;4.40;99.90
28823;DHT22;15961;54.678;9.110;2023-03-05T13:55:00;4.60;99.90
28823;DHT22;15961;54.678;9.110;2023-03-05T13:57:39;5.00;99.90
28823;DHT22;15961;54.678;9.110;2023-03-05T14:00:36;5.10;99.90
28823;DHT22;15961;54.678;9.110;2023-03-05T14:03:20;4.90;99.90
28823;DHT22;15961;54.678;9.110;2023-03-05T14:05:47;5.00;99.90
28823;DHT22;15961;54.678;9.110;2023-03-05T14:08:20;5.00;99.90
28823;DHT22;15961;54.678;9.110;2023-03-05T14:10:48;5.00;99.90
28823;DHT22;15961;54.678;9.110;2023-03-05T14:13:20;5.30;99.90
28823;DHT22;15961;54.678;9.110;2023-03-05T14:16:13;5.00;99.90
28823;DHT22;15961;54.678;9.110;2023-03-05T14:19:00;4.90;99.90
28823;DHT22;15961;54.678;9.110;2023-03-05T14:21:50;4.90;99.90
28823;DHT22;15961;54.678;9.110;2023-03-05T14:24:23;4.80;99.90
28823;DHT22;15961;54.678;9.110;2023-03-05T14:27:05;4.80;99.90
28823;DHT22;15961;54.678;9.110;2023-03-05T14:29:33;4.70;99.90
28823;DHT22;15961;54.678;9.110;2023-03-05T14:32:06;4.60;99.90
28823;DHT22;15961;54.678;9.110;2023-03-05T14:34:35;4.60;99.90
28823;DHT22;15961;54.678;9.110;2023-03-05T14:37:15;4.60;99.90
28823;DHT22;15961;54.678;9.110;2023-03-05T14:39:59;4.60;99.90
28823;DHT22;15961;54.678;9.110;2023-03-05T14:45:26;4.50;99.90
28823;DHT22;15961;54.678;9.110;2023-03-05T14:47:54;4.60;99.90
28823;DHT22;15961;54.678;9.110;2023-03-05T14:50:28;4.70;99.90
28823;DHT22;15961;54.678;9.110;2023-03-05T14:52:59;4.80;99.90
28823;DHT22;15961;54.678;9.110;2023-03-05T14:55:28;4.80;99.90
28823;DHT22;15961;54.678;9.110;2023-03-05T14:58:08;4.80;99.90
28823;DHT22;15961;54.678;9.110;2023-03-05T15:00:35;4.70;99.90
28823;DHT22;15961;54.678;9.110;2023-03-05T15:03:00;4.70;99.90
28823;DHT22;15961;54.678;9.110;2023-03-05T15:05:26;4.70;99.90
28823;DHT22;15961;54.678;9.110;2023-03-05T15:07:52;4.60;99.90
28823;DHT22;15961;54.678;9.110;2023-03-05T15:10:20;4.60;99.90
28823;DHT22;15961;54.678;9.110;2023-03-05T15:12:46;4.50;99.90
28823;DHT22;15961;54.678;9.110;2023-03-05T15:15:13;4.60;99.90
28823;DHT22;15961;54.678;9.110;2023-03-05T15:17:42;4.50;99.90
28823;DHT22;15961;54.678;9.110;2023-03-05T15:20:15;4.50;99.90
28823;DHT22;15961;54.678;9.110;2023-03-05T15:22:41;4.30;99.90
28823;DHT22;15961;54.678;9.110;2023-03-05T15:25:06;4.20;99.90
28823;DHT22;15961;54.678;9.110;2023-03-05T15:27:32;4.10;99.90
28823;DHT22;15961;54.678;9.110;2023-03-05T15:29:57;4.10;99.90
28823;DHT22;15961;54.678;9.110;2023-03-05T15:32:26;4.10;99.90
28823;DHT22;15961;54.678;9.110;2023-03-05T15:34:52;4.00;99.90
28823;DHT22;15961;54.678;9.110;2023-03-05T15:37:17;4.10;99.90
28823;DHT22;15961;54.678;9.110;2023-03-05T15:39:43;4.00;99.90
28823;DHT22;15961;54.678;9.110;2023-03-05T15:42:08;4.00;99.90
28823;DHT22;15961;54.678;9.110;2023-03-05T15:44:34;3.90;99.90
28823;DHT22;15961;54.678;9.110;2023-03-05T15:46:59;3.90;99.90
28823;DHT22;15961;54.678;9.110;2023-03-05T15:49:25;3.90;99.90
28823;DHT22;15961;54.678;9.110;2023-03-05T15:51:51;3.80;99.90
28823;DHT22;15961;54.678;9.110;2023-03-05T15:54:17;3.80;99.90
28823;DHT22;15961;54.678;9.110;2023-03-05T15:56:43;3.80;99.90
28823;DHT22;15961;54.678;9.110;2023-03-05T15:59:08;3.80;99.90
28823;DHT22;15961;54.678;9.110;2023-03-05T16:01:36;3.70;99.90
28823;DHT22;15961;54.678;9.110;2023-03-05T16:04:02;3.70;99.90
28823;DHT22;15961;54.678;9.110;2023-03-05T16:06:28;3.70;99.90
28823;DHT22;15961;54.678;9.110;2023-03-05T16:09:04;3.70;99.90
28823;DHT22;15961;54.678;9.110;2023-03-05T16:11:35;3.70;99.90
28823;DHT22;15961;54.678;9.110;2023-03-05T16:14:05;3.70;99.90
28823;DHT22;15961;54.678;9.110;2023-03-05T16:16:32;3.70;99.90
28823;DHT22;15961;54.678;9.110;2023-03-05T16:18:58;3.70;99.90
28823;DHT22;15961;54.678;9.110;2023-03-05T16:21:24;3.50;99.90
28823;DHT22;15961;54.678;9.110;2023-03-05T16:23:50;3.40;99.90
28823;DHT22;15961;54.678;9.110;2023-03-05T16:26:15;3.40;99.90
28823;DHT22;15961;54.678;9.110;2023-03-05T16:28:41;3.40;99.90
28823;DHT22;15961;54.678;9.110;2023-03-05T16:31:06;3.30;99.90
28823;DHT22;15961;54.678;9.110;2023-03-05T16:33:32;3.30;99.90
28823;DHT22;15961;54.678;9.110;2023-03-05T16:38:38;3.30;99.90
28823;DHT22;15961;54.678;9.110;2023-03-05T16:41:04;3.30;99.90
28823;DHT22;15961;54.678;9.110;2023-03-05T16:43:29;3.30;99.90
28823;DHT22;15961;54.678;9.110;2023-03-05T16:45:55;3.20;99.90
28823;DHT22;15961;54.678;9.110;2023-03-05T16:48:21;3.10;99.90
28823;DHT22;15961;54.678;9.110;2023-03-05T16:50:46;3.10;99.90
28823;DHT22;15961;54.678;9.110;2023-03-05T16:53:12;3.10;99.90
28823;DHT22;15961;54.678;9.110;2023-03-05T16:55:38;3.10;99.90
28823;DHT22;15961;54.678;9.110;2023-03-05T16:58:03;3.10;99.90
28823;DHT22;15961;54.678;9.110;2023-03-05T17:00:29;3.00;99.90
28823;DHT22;15961;54.678;9.110;2023-03-05T17:02:55;2.90;99.90
28823;DHT22;15961;54.678;9.110;2023-03-05T17:05:20;2.90;99.90